Time;durP1;ratioP1;P1;durP2;ratioP2;P2;SDS_P1;SDS_P2;PMS_P1;PMS_P2;Temp;Humidity;BMP_temperature;BMP_pressure;BME280_temperature;BME280_humidity;BME280_pressure;Samples;Min_cycle;Max_cycle;Signal;HPM_P1;HPM_P2
2021/12/14 00:00:39;;;;;;;;;;;1.50;87.30;;;;;;5055024;28;20522;-67
2021/12/14 00:03:06;;;;;;;;;;;1.50;87.40;;;;;;5054931;28;20388;-67
2021/12/14 00:05:32;;;;;;;;;;;1.30;87.50;;;;;;5053631;28;19939;-67
2021/12/14 00:08:00;;;;;;;;;;;1.20;87.60;;;;;;5053560;28;19948;-67
2021/12/14 00:10:46;;;;;;;;;;;1.20;87.90;;;;;;5054574;28;19974;-67
2021/12/14 00:13:41;;;;;;;;;;;1.30;88.10;;;;;;5054735;28;20446;-67
2021/12/14 00:16:08;;;;;;;;;;;1.20;87.70;;;;;;5054473;28;19970;-67
2021/12/14 00:18:34;;;;;;;;;;;1.20;87.80;;;;;;5054659;28;20393;-67
2021/12/14 00:21:08;;;;;;;;;;;1.10;87.60;;;;;;5054570;28;20392;-67
2021/12/14 00:26:18;;;;;;;;;;;1.00;87.80;;;;;;5054393;28;19952;-67
2021/12/14 00:28:45;;;;;;;;;;;0.90;87.70;;;;;;5054468;28;19935;-67
2021/12/14 00:31:14;;;;;;;;;;;0.80;88.10;;;;;;5054366;28;20403;-67
2021/12/14 00:33:44;;;;;;;;;;;0.70;88.40;;;;;;5053680;28;19954;-67
2021/12/14 00:36:10;;;;;;;;;;;0.70;89.10;;;;;;5054232;28;19972;-67
2021/12/14 00:38:37;;;;;;;;;;;0.80;89.90;;;;;;5054243;28;19940;-67
2021/12/14 00:41:07;;;;;;;;;;;0.70;90.60;;;;;;5054245;28;20408;-67
2021/12/14 00:43:33;;;;;;;;;;;0.80;91.00;;;;;;5054420;28;19976;-68
2021/12/14 00:45:59;;;;;;;;;;;0.90;91.00;;;;;;5054135;28;19993;-68
2021/12/14 00:48:24;;;;;;;;;;;1.00;90.90;;;;;;5054027;28;19944;-68
2021/12/14 00:50:52;;;;;;;;;;;1.20;90.90;;;;;;5054055;28;20390;-67
2021/12/14 00:53:18;;;;;;;;;;;1.40;90.90;;;;;;5053969;28;19967;-67
2021/12/14 00:55:45;;;;;;;;;;;1.50;90.60;;;;;;5053845;28;20413;-67
2021/12/14 00:58:11;;;;;;;;;;;1.70;90.50;;;;;;5053856;28;19945;-67
2021/12/14 01:00:39;;;;;;;;;;;1.70;90.60;;;;;;5053805;28;20360;-67
2021/12/14 01:03:06;;;;;;;;;;;1.50;89.80;;;;;;5053764;28;20307;-67
2021/12/14 01:05:33;;;;;;;;;;;1.40;89.80;;;;;;5053775;28;19941;-67
2021/12/14 01:08:00;;;;;;;;;;;1.40;88.60;;;;;;5052374;28;19960;-67
2021/12/14 01:10:34;;;;;;;;;;;1.30;87.30;;;;;;5053503;28;20443;-67
2021/12/14 01:13:05;;;;;;;;;;;1.10;87.20;;;;;;5053871;28;20028;-67
2021/12/14 01:21:14;;;;;;;;;;;0.80;89.50;;;;;;5053797;28;20410;-68
2021/12/14 01:23:40;;;;;;;;;;;0.90;91.20;;;;;;5053427;28;20400;-68
2021/12/14 01:26:14;;;;;;;;;;;0.80;90.40;;;;;;5053199;28;19940;-68
2021/12/14 01:28:42;;;;;;;;;;;0.80;90.20;;;;;;5053372;28;19951;-67
2021/12/14 01:31:16;;;;;;;;;;;0.90;90.20;;;;;;5053338;28;20419;-67
2021/12/14 01:33:43;;;;;;;;;;;0.90;90.00;;;;;;5053290;28;19937;-67
2021/12/14 01:36:23;;;;;;;;;;;1.00;90.10;;;;;;5053222;28;19967;-67
2021/12/14 01:39:09;;;;;;;;;;;1.10;90.20;;;;;;5053256;28;20414;-67
2021/12/14 01:41:35;;;;;;;;;;;1.30;89.80;;;;;;5053228;28;19944;-67
2021/12/14 01:44:01;;;;;;;;;;;1.40;89.30;;;;;;5052830;28;19940;-67
2021/12/14 01:46:26;;;;;;;;;;;1.30;89.00;;;;;;5052508;28;20032;-67
2021/12/14 01:48:52;;;;;;;;;;;1.20;89.70;;;;;;5051805;28;19947;-67
2021/12/14 01:51:18;;;;;;;;;;;1.10;90.30;;;;;;5053106;28;19984;-68
2021/12/14 01:53:45;;;;;;;;;;;1.30;90.40;;;;;;5053006;28;20030;-68
2021/12/14 01:56:12;;;;;;;;;;;1.30;90.50;;;;;;5052923;28;19956;-68
2021/12/14 01:58:58;;;;;;;;;;;1.30;90.10;;;;;;5051776;28;19944;-68
2021/12/14 02:01:28;;;;;;;;;;;1.30;89.40;;;;;;5052997;28;19936;-68
2021/12/14 02:03:58;;;;;;;;;;;1.20;89.00;;;;;;5052922;28;20383;-68
2021/12/14 02:06:26;;;;;;;;;;;1.00;88.70;;;;;;5052923;28;20029;-68
2021/12/14 02:09:21;;;;;;;;;;;0.90;89.00;;;;;;5052783;28;19955;-68
2021/12/14 02:11:48;;;;;;;;;;;0.70;88.60;;;;;;5039537;28;20014;-67
2021/12/14 02:14:14;;;;;;;;;;;0.80;89.00;;;;;;5052793;28;19941;-68
2021/12/14 02:16:40;;;;;;;;;;;0.90;88.90;;;;;;5052803;28;19953;-68
2021/12/14 02:19:10;;;;;;;;;;;1.00;88.90;;;;;;5052802;28;20023;-67
2021/12/14 02:21:37;;;;;;;;;;;1.10;88.90;;;;;;5052807;28;20030;-67
2021/12/14 02:24:04;;;;;;;;;;;1.20;89.00;;;;;;5052743;28;20424;-67
2021/12/14 02:26:31;;;;;;;;;;;1.20;88.70;;;;;;5052937;28;20387;-67
2021/12/14 02:28:57;;;;;;;;;;;1.00;88.50;;;;;;5052723;28;19942;-68
2021/12/14 02:31:24;;;;;;;;;;;0.90;88.50;;;;;;5052654;28;19947;-68
2021/12/14 02:33:51;;;;;;;;;;;0.90;88.40;;;;;;5052638;28;20331;-68
2021/12/14 02:36:25;;;;;;;;;;;0.70;88.30;;;;;;5052576;28;20015;-68
2021/12/14 02:39:04;;;;;;;;;;;0.60;88.40;;;;;;5052560;28;19936;-68
2021/12/14 02:41:29;;;;;;;;;;;0.60;88.50;;;;;;5052598;28;20410;-68
2021/12/14 02:43:56;;;;;;;;;;;0.60;88.50;;;;;;5052560;28;19941;-68
2021/12/14 02:46:33;;;;;;;;;;;0.50;88.60;;;;;;5052545;28;19967;-68
2021/12/14 02:49:01;;;;;;;;;;;0.50;89.10;;;;;;5052543;28;19952;-68
2021/12/14 02:51:31;;;;;;;;;;;0.50;89.50;;;;;;5052535;28;20045;-68
2021/12/14 02:53:59;;;;;;;;;;;0.60;89.70;;;;;;5051305;28;20041;-68
2021/12/14 02:56:26;;;;;;;;;;;0.70;89.90;;;;;;5053487;28;20053;-68
2021/12/14 02:58:57;;;;;;;;;;;0.70;90.10;;;;;;5056143;28;20081;-68
2021/12/14 03:01:22;;;;;;;;;;;0.80;90.00;;;;;;5056136;28;19935;-68
2021/12/14 03:03:48;;;;;;;;;;;0.90;89.90;;;;;;5054797;28;19944;-68
2021/12/14 03:06:20;;;;;;;;;;;0.90;89.80;;;;;;5055998;28;20399;-68
2021/12/14 03:08:56;;;;;;;;;;;0.90;89.60;;;;;;5055847;28;20426;-68
2021/12/14 03:11:22;;;;;;;;;;;0.90;90.50;;;;;;5055724;28;20066;-68
2021/12/14 03:13:50;;;;;;;;;;;1.00;90.20;;;;;;5055867;28;20007;-68
2021/12/14 03:16:35;;;;;;;;;;;0.80;89.80;;;;;;5055811;28;19989;-68
2021/12/14 03:19:03;;;;;;;;;;;0.80;89.70;;;;;;5055195;28;20011;-68
2021/12/14 03:21:30;;;;;;;;;;;0.70;89.10;;;;;;5054472;28;19947;-68
2021/12/14 03:23:59;;;;;;;;;;;0.60;89.20;;;;;;5055681;28;19952;-68
2021/12/14 03:26:26;;;;;;;;;;;0.60;89.20;;;;;;5055393;28;19942;-68
2021/12/14 03:28:54;;;;;;;;;;;0.50;89.10;;;;;;5055569;28;19939;-68
2021/12/14 03:31:30;;;;;;;;;;;0.50;89.10;;;;;;5055443;28;20039;-68
2021/12/14 03:33:59;;;;;;;;;;;0.30;89.30;;;;;;5055481;28;19941;-68
2021/12/14 03:36:35;;;;;;;;;;;0.20;89.50;;;;;;5055382;28;20011;-68
2021/12/14 03:39:01;;;;;;;;;;;0.10;89.90;;;;;;5054204;28;20028;-68
2021/12/14 03:41:31;;;;;;;;;;;0.10;90.30;;;;;;5055383;28;20102;-68
2021/12/14 03:43:59;;;;;;;;;;;0.10;91.00;;;;;;5055316;28;19935;-68
2021/12/14 03:46:29;;;;;;;;;;;0.10;91.40;;;;;;5055278;28;19943;-68
2021/12/14 03:48:55;;;;;;;;;;;0.00;91.50;;;;;;5055241;28;19948;-68
2021/12/14 03:51:22;;;;;;;;;;;0.00;91.90;;;;;;5055129;28;19949;-68
2021/12/14 03:53:49;;;;;;;;;;;0.00;92.00;;;;;;5055026;28;19942;-68
2021/12/14 03:56:14;;;;;;;;;;;0.00;92.30;;;;;;5054971;28;20020;-68
2021/12/14 03:58:40;;;;;;;;;;;0.00;92.30;;;;;;5054947;28;19950;-68
2021/12/14 04:01:11;;;;;;;;;;;0.00;92.30;;;;;;5054962;28;19942;-68
2021/12/14 04:03:37;;;;;;;;;;;0.20;92.40;;;;;;5054888;28;20388;-68
2021/12/14 04:06:04;;;;;;;;;;;0.30;92.50;;;;;;5054916;28;19943;-67
2021/12/14 04:08:30;;;;;;;;;;;0.30;92.50;;;;;;5053383;28;19995;-67
2021/12/14 04:10:58;;;;;;;;;;;0.40;92.30;;;;;;5054321;28;19990;-67
2021/12/14 04:13:26;;;;;;;;;;;0.30;92.40;;;;;;5054814;28;19954;-67
2021/12/14 04:15:52;;;;;;;;;;;0.20;92.50;;;;;;5054569;28;20006;-67
2021/12/14 04:18:17;;;;;;;;;;;0.20;92.40;;;;;;5054658;28;19936;-67
2021/12/14 04:20:44;;;;;;;;;;;0.20;92.30;;;;;;5053353;28;19945;-67
2021/12/14 04:23:12;;;;;;;;;;;0.20;91.70;;;;;;5054580;28;20079;-67
2021/12/14 04:25:38;;;;;;;;;;;0.10;91.80;;;;;;5054345;28;19943;-67
2021/12/14 04:28:06;;;;;;;;;;;0.10;91.70;;;;;;5053152;28;19983;-67
2021/12/14 04:30:31;;;;;;;;;;;0.10;91.30;;;;;;5054462;28;19937;-67
2021/12/14 04:32:59;;;;;;;;;;;0.20;91.90;;;;;;5054373;28;19948;-67
2021/12/14 04:35:25;;;;;;;;;;;0.20;91.60;;;;;;5054283;28;20110;-67
2021/12/14 04:37:53;;;;;;;;;;;0.30;91.60;;;;;;5054293;28;20401;-67
2021/12/14 04:40:36;;;;;;;;;;;0.20;91.30;;;;;;5054295;28;19956;-68
2021/12/14 04:54:07;;;;;;;;;;;0.70;90.80;;;;;;5054253;28;19961;-67
2021/12/14 04:56:41;;;;;;;;;;;0.70;90.80;;;;;;5052676;28;20309;-67
2021/12/14 04:59:09;;;;;;;;;;;0.50;90.40;;;;;;5053964;28;19942;-67
2021/12/14 05:01:37;;;;;;;;;;;0.00;88.30;;;;;;5053860;28;19995;-67
2021/12/14 05:04:05;;;;;;;;;;;-3276.60;89.30;;;;;;5053823;28;19942;-67
2021/12/14 05:06:46;;;;;;;;;;;-3276.50;91.00;;;;;;5052441;28;19949;-67
2021/12/14 05:09:22;;;;;;;;;;;-3276.60;92.70;;;;;;5053641;28;19997;-67
2021/12/14 05:11:52;;;;;;;;;;;-3276.60;92.70;;;;;;5060317;23;19984;-67
2021/12/14 05:14:19;;;;;;;;;;;-3276.70;92.70;;;;;;5053565;28;19952;-67
2021/12/14 05:16:44;;;;;;;;;;;0.00;92.50;;;;;;5052319;28;20389;-67
2021/12/14 05:19:11;;;;;;;;;;;0.00;92.30;;;;;;5053342;28;19950;-67
2021/12/14 05:21:44;;;;;;;;;;;0.00;92.10;;;;;;5053533;28;20035;-67
2021/12/14 05:24:10;;;;;;;;;;;0.00;91.90;;;;;;5053484;28;19942;-67
2021/12/14 05:26:36;;;;;;;;;;;0.00;92.10;;;;;;5053371;28;20026;-67
2021/12/14 05:29:03;;;;;;;;;;;0.10;92.00;;;;;;5053378;28;20511;-67
2021/12/14 05:31:29;;;;;;;;;;;0.10;92.00;;;;;;5052013;28;20329;-68
2021/12/14 05:33:54;;;;;;;;;;;0.10;91.60;;;;;;5053314;28;19940;-68
2021/12/14 05:36:21;;;;;;;;;;;0.00;91.40;;;;;;5053229;28;20419;-68
2021/12/14 05:39:02;;;;;;;;;;;0.10;91.30;;;;;;5053224;28;19950;-68
2021/12/14 05:44:23;;;;;;;;;;;0.20;90.60;;;;;;5053435;28;20006;-68
2021/12/14 05:46:50;;;;;;;;;;;0.20;90.40;;;;;;5053163;28;20381;-68
2021/12/14 05:49:18;;;;;;;;;;;0.20;90.80;;;;;;5053113;28;19950;-68
2021/12/14 05:51:46;;;;;;;;;;;0.30;91.00;;;;;;5053078;28;19944;-68
2021/12/14 05:54:16;;;;;;;;;;;0.40;90.90;;;;;;5052051;28;19954;-68
2021/12/14 05:56:42;;;;;;;;;;;0.30;90.70;;;;;;5051558;28;19966;-68
2021/12/14 05:59:07;;;;;;;;;;;0.20;89.90;;;;;;5051422;28;20074;-68
2021/12/14 06:01:33;;;;;;;;;;;0.00;89.80;;;;;;5052942;28;19940;-68
2021/12/14 06:04:01;;;;;;;;;;;0.00;90.00;;;;;;5052276;28;20464;-68
2021/12/14 06:06:37;;;;;;;;;;;0.00;90.10;;;;;;5052265;28;20384;-68
2021/12/14 06:09:10;;;;;;;;;;;0.00;90.20;;;;;;5032775;28;19941;-68
2021/12/14 06:11:36;;;;;;;;;;;0.10;90.30;;;;;;5042959;28;19977;-68
2021/12/14 06:14:02;;;;;;;;;;;0.20;90.10;;;;;;5052217;28;19947;-68
2021/12/14 06:16:33;;;;;;;;;;;0.30;89.90;;;;;;5050915;28;19967;-68
2021/12/14 06:19:11;;;;;;;;;;;0.40;90.00;;;;;;5052530;28;19947;-68
2021/12/14 06:21:36;;;;;;;;;;;0.50;89.80;;;;;;5051495;28;19941;-68
2021/12/14 06:24:06;;;;;;;;;;;0.40;89.30;;;;;;5052633;28;19956;-68
2021/12/14 06:26:33;;;;;;;;;;;0.40;89.20;;;;;;5048336;28;20404;-68
2021/12/14 06:29:06;;;;;;;;;;;0.30;90.00;;;;;;5042648;28;20472;-68
2021/12/14 06:31:32;;;;;;;;;;;0.20;90.40;;;;;;5050935;28;19947;-68
2021/12/14 06:34:09;;;;;;;;;;;0.20;90.80;;;;;;5054015;28;19946;-68
2021/12/14 06:36:53;;;;;;;;;;;0.30;90.50;;;;;;5043174;28;19998;-68
2021/12/14 06:39:19;;;;;;;;;;;0.00;89.80;;;;;;5044833;28;19948;-68
2021/12/14 06:41:44;;;;;;;;;;;-3276.60;88.90;;;;;;5051224;28;20438;-68
2021/12/14 06:44:10;;;;;;;;;;;-3276.60;90.10;;;;;;5052966;28;19953;-68
2021/12/14 06:46:38;;;;;;;;;;;-3276.70;90.10;;;;;;5046710;28;19955;-68
2021/12/14 06:49:06;;;;;;;;;;;-3276.70;90.40;;;;;;5050111;28;19959;-68
2021/12/14 06:51:34;;;;;;;;;;;0.00;90.70;;;;;;5050601;28;20352;-68
2021/12/14 06:54:02;;;;;;;;;;;0.00;90.70;;;;;;5052691;28;20012;-68
2021/12/14 06:56:30;;;;;;;;;;;0.00;90.50;;;;;;5049073;28;20390;-68
2021/12/14 06:58:58;;;;;;;;;;;0.00;90.50;;;;;;5049991;28;19995;-67
2021/12/14 07:01:43;;;;;;;;;;;0.20;90.60;;;;;;5051571;28;19948;-67
2021/12/14 07:04:11;;;;;;;;;;;0.40;90.60;;;;;;5047947;28;19946;-68
2021/12/14 07:06:37;;;;;;;;;;;0.50;90.10;;;;;;5053636;28;20400;-68
2021/12/14 07:09:05;;;;;;;;;;;0.50;89.90;;;;;;5044521;28;20439;-68
2021/12/14 07:11:30;;;;;;;;;;;0.40;89.50;;;;;;5051443;28;20026;-68
2021/12/14 07:13:57;;;;;;;;;;;0.40;89.20;;;;;;5050828;28;19990;-68
2021/12/14 07:16:32;;;;;;;;;;;0.20;88.80;;;;;;5050677;28;19976;-68
2021/12/14 07:18:59;;;;;;;;;;;0.10;89.20;;;;;;5048988;28;20362;-68
2021/12/14 07:21:40;;;;;;;;;;;0.00;89.60;;;;;;5053103;28;19949;-68
2021/12/14 07:24:29;;;;;;;;;;;-3276.70;89.80;;;;;;5046031;28;19945;-68
2021/12/14 07:27:15;;;;;;;;;;;-3276.50;90.60;;;;;;5041820;28;19966;-68
2021/12/14 07:29:41;;;;;;;;;;;-3276.60;92.40;;;;;;5042928;28;19946;-68
2021/12/14 07:32:07;;;;;;;;;;;0.00;92.90;;;;;;5048609;28;20392;-67
2021/12/14 07:34:32;;;;;;;;;;;0.00;93.00;;;;;;5048808;28;19979;-67
2021/12/14 07:36:58;;;;;;;;;;;0.10;93.20;;;;;;5051249;28;19947;-67
2021/12/14 07:39:23;;;;;;;;;;;0.20;93.30;;;;;;5053616;28;19945;-67
2021/12/14 07:41:51;;;;;;;;;;;0.20;93.20;;;;;;5043710;28;20358;-67
2021/12/14 07:44:16;;;;;;;;;;;0.10;93.00;;;;;;5051241;28;19962;-67
2021/12/14 07:46:47;;;;;;;;;;;0.20;93.10;;;;;;5039236;28;19950;-67
2021/12/14 07:49:24;;;;;;;;;;;0.30;93.10;;;;;;5046144;28;19946;-68
2021/12/14 07:51:55;;;;;;;;;;;0.50;93.10;;;;;;5053792;28;20012;-67
2021/12/14 07:54:24;;;;;;;;;;;0.60;92.90;;;;;;5051836;28;19951;-68
2021/12/14 07:56:57;;;;;;;;;;;0.70;93.00;;;;;;5053499;28;19953;-68
2021/12/14 07:59:24;;;;;;;;;;;0.80;93.00;;;;;;5050696;28;20384;-68
2021/12/14 08:02:05;;;;;;;;;;;1.00;93.00;;;;;;5050617;28;19955;-67
2021/12/14 08:04:34;;;;;;;;;;;1.10;92.90;;;;;;5050450;28;20355;-68
2021/12/14 08:07:00;;;;;;;;;;;1.20;92.90;;;;;;5052154;28;19951;-67
2021/12/14 08:09:32;;;;;;;;;;;1.20;92.80;;;;;;5050537;28;19963;-67
2021/12/14 08:11:58;;;;;;;;;;;1.40;92.80;;;;;;5050553;28;20015;-68
2021/12/14 08:14:25;;;;;;;;;;;1.60;92.90;;;;;;5048802;28;19999;-68
2021/12/14 08:17:03;;;;;;;;;;;1.70;92.60;;;;;;5050213;28;19961;-67
2021/12/14 08:19:32;;;;;;;;;;;1.70;92.20;;;;;;5048521;28;19949;-68
2021/12/14 08:21:59;;;;;;;;;;;1.80;92.00;;;;;;5045794;28;20031;-68
2021/12/14 08:24:25;;;;;;;;;;;1.80;91.80;;;;;;5032969;28;19948;-68
2021/12/14 08:26:52;;;;;;;;;;;1.90;91.60;;;;;;5050711;28;19954;-67
2021/12/14 08:29:28;;;;;;;;;;;2.00;91.80;;;;;;5052756;28;19991;-67
2021/12/14 08:31:56;;;;;;;;;;;2.00;91.60;;;;;;5051135;28;19949;-67
2021/12/14 08:34:24;;;;;;;;;;;2.10;91.20;;;;;;5052239;28;19950;-67
2021/12/14 08:36:52;;;;;;;;;;;2.10;90.90;;;;;;5050411;28;20391;-67
2021/12/14 08:39:20;;;;;;;;;;;2.20;90.70;;;;;;5048871;28;19949;-67
2021/12/14 08:41:53;;;;;;;;;;;2.30;90.70;;;;;;5048560;28;21073;-67
2021/12/14 08:44:36;;;;;;;;;;;2.40;90.70;;;;;;5051056;28;19974;-67
2021/12/14 08:47:10;;;;;;;;;;;2.50;90.80;;;;;;5051537;28;20085;-67
2021/12/14 08:49:36;;;;;;;;;;;2.70;90.90;;;;;;5048319;28;20398;-67
2021/12/14 08:52:02;;;;;;;;;;;2.80;90.90;;;;;;5050284;28;19994;-67
2021/12/14 08:54:29;;;;;;;;;;;2.90;91.00;;;;;;5040367;28;19946;-67
2021/12/14 08:57:09;;;;;;;;;;;3.00;90.90;;;;;;5051031;28;19945;-67
2021/12/14 08:59:35;;;;;;;;;;;3.20;91.00;;;;;;5045602;28;19944;-67
2021/12/14 09:02:03;;;;;;;;;;;3.40;91.00;;;;;;5051573;28;19947;-67
2021/12/14 09:04:32;;;;;;;;;;;3.50;90.60;;;;;;5048232;28;20013;-67
2021/12/14 09:07:03;;;;;;;;;;;3.70;89.80;;;;;;5048633;28;19944;-67
2021/12/14 09:09:29;;;;;;;;;;;3.90;89.80;;;;;;5048318;28;21327;-67
2021/12/14 09:11:58;;;;;;;;;;;4.00;88.80;;;;;;5047431;28;20515;-67
2021/12/14 09:14:24;;;;;;;;;;;4.20;88.60;;;;;;5049820;28;19945;-67
2021/12/14 09:16:51;;;;;;;;;;;4.30;86.50;;;;;;5046691;28;19948;-67
2021/12/14 09:19:19;;;;;;;;;;;4.40;86.50;;;;;;5045459;28;20406;-67
2021/12/14 09:21:47;;;;;;;;;;;4.60;85.80;;;;;;5047980;28;20334;-67
2021/12/14 09:24:14;;;;;;;;;;;4.90;84.90;;;;;;5045007;28;20074;-67
2021/12/14 09:26:43;;;;;;;;;;;5.20;84.40;;;;;;5049110;28;20026;-67
2021/12/14 09:29:10;;;;;;;;;;;5.40;84.10;;;;;;5044775;28;19996;-67
2021/12/14 09:31:38;;;;;;;;;;;5.40;83.80;;;;;;5050304;28;19951;-67
2021/12/14 09:34:04;;;;;;;;;;;5.60;83.80;;;;;;5050336;28;20320;-67
2021/12/14 09:36:30;;;;;;;;;;;5.80;82.40;;;;;;5049432;28;19974;-67
2021/12/14 09:38:58;;;;;;;;;;;5.90;81.60;;;;;;5049294;28;20102;-67
2021/12/14 09:41:26;;;;;;;;;;;6.00;82.10;;;;;;5048621;28;20311;-67
2021/12/14 09:43:53;;;;;;;;;;;6.10;81.70;;;;;;5048429;28;19963;-67
2021/12/14 09:46:19;;;;;;;;;;;6.10;81.90;;;;;;5047821;28;19946;-67
2021/12/14 09:49:05;;;;;;;;;;;6.30;81.30;;;;;;5046785;28;20428;-67
2021/12/14 09:51:45;;;;;;;;;;;6.40;81.50;;;;;;5050015;28;19951;-67
2021/12/14 09:54:12;;;;;;;;;;;6.50;80.50;;;;;;5047895;28;19943;-67
2021/12/14 09:56:41;;;;;;;;;;;6.80;80.50;;;;;;5047281;28;19993;-67
2021/12/14 09:59:07;;;;;;;;;;;6.90;78.10;;;;;;5044273;28;19947;-67
2021/12/14 10:02:02;;;;;;;;;;;6.90;76.50;;;;;;5045775;28;19942;-67
2021/12/14 10:04:34;;;;;;;;;;;6.90;75.90;;;;;;5030524;28;20070;-67
2021/12/14 10:07:02;;;;;;;;;;;6.90;75.30;;;;;;5052057;28;19959;-67
2021/12/14 10:09:31;;;;;;;;;;;6.90;73.70;;;;;;5048417;28;20042;-67
2021/12/14 10:12:16;;;;;;;;;;;6.90;74.00;;;;;;5050480;28;20072;-67
2021/12/14 10:14:43;;;;;;;;;;;6.90;73.80;;;;;;5054605;28;19965;-67
2021/12/14 10:17:11;;;;;;;;;;;7.00;74.20;;;;;;5053961;28;19951;-67
2021/12/14 10:19:38;;;;;;;;;;;7.10;74.30;;;;;;5054042;28;19986;-67
2021/12/14 10:22:06;;;;;;;;;;;7.30;74.20;;;;;;5050931;28;20301;-67
2021/12/14 10:24:32;;;;;;;;;;;7.60;73.70;;;;;;5050751;28;20042;-67
2021/12/14 10:27:03;;;;;;;;;;;7.70;73.90;;;;;;5048981;28;20369;-67
2021/12/14 10:29:29;;;;;;;;;;;7.70;72.80;;;;;;5054945;28;19962;-67
2021/12/14 10:32:02;;;;;;;;;;;7.70;72.50;;;;;;5053314;28;19950;-66
2021/12/14 10:34:29;;;;;;;;;;;7.70;70.90;;;;;;5050301;28;19944;-66
2021/12/14 10:37:04;;;;;;;;;;;7.70;71.30;;;;;;5051950;28;20011;-66
2021/12/14 10:44:46;;;;;;;;;;;8.10;67.70;;;;;;5051662;28;20333;-67
2021/12/14 10:47:13;;;;;;;;;;;8.20;67.10;;;;;;5053565;28;20052;-67
2021/12/14 10:49:40;;;;;;;;;;;8.40;67.70;;;;;;5050947;28;20490;-67
2021/12/14 10:52:10;;;;;;;;;;;8.70;68.00;;;;;;5049881;28;20081;-67
2021/12/14 10:54:36;;;;;;;;;;;9.00;66.90;;;;;;5047746;28;20066;-67
2021/12/14 10:57:06;;;;;;;;;;;9.30;66.20;;;;;;5050491;28;19979;-67
2021/12/14 10:59:34;;;;;;;;;;;9.50;63.40;;;;;;5046015;28;20406;-67
2021/12/14 11:02:00;;;;;;;;;;;9.70;62.40;;;;;;5050162;28;20385;-67
2021/12/14 11:04:34;;;;;;;;;;;10.00;63.10;;;;;;5047009;28;19968;-66
2021/12/14 11:07:02;;;;;;;;;;;10.40;60.80;;;;;;5052074;28;19954;-67
2021/12/14 11:09:42;;;;;;;;;;;10.50;57.10;;;;;;5042243;28;19985;-67
2021/12/14 11:12:10;;;;;;;;;;;10.50;58.30;;;;;;5053968;28;19990;-67
2021/12/14 11:14:37;;;;;;;;;;;10.50;59.70;;;;;;5047736;28;20083;-67
2021/12/14 11:19:55;;;;;;;;;;;10.40;58.40;;;;;;5056414;28;19949;-67
2021/12/14 11:22:23;;;;;;;;;;;10.50;58.40;;;;;;5055767;28;20001;-67
2021/12/14 11:24:50;;;;;;;;;;;10.60;58.30;;;;;;5055756;28;19947;-67
2021/12/14 11:27:18;;;;;;;;;;;10.80;58.20;;;;;;5055621;28;20034;-67
2021/12/14 11:29:44;;;;;;;;;;;10.80;58.00;;;;;;5055634;28;19949;-67
2021/12/14 11:32:15;;;;;;;;;;;10.80;56.60;;;;;;5055585;28;19936;-67
2021/12/14 11:34:40;;;;;;;;;;;10.90;57.20;;;;;;5054159;28;19956;-67
2021/12/14 11:37:11;;;;;;;;;;;11.10;58.00;;;;;;5055504;28;19942;-65
2021/12/14 11:39:41;;;;;;;;;;;11.30;56.10;;;;;;5055467;28;19948;-65
2021/12/14 11:42:09;;;;;;;;;;;11.40;56.60;;;;;;5055412;28;19946;-65
2021/12/14 11:44:37;;;;;;;;;;;11.50;55.00;;;;;;5055387;28;19953;-67
2021/12/14 11:47:11;;;;;;;;;;;11.50;54.90;;;;;;5055240;28;20358;-67
2021/12/14 11:49:48;;;;;;;;;;;11.40;54.40;;;;;;5055247;28;20377;-67
2021/12/14 11:52:30;;;;;;;;;;;11.30;55.90;;;;;;5055169;28;19949;-67
2021/12/14 11:54:56;;;;;;;;;;;11.30;56.70;;;;;;5055041;28;20302;-67
2021/12/14 11:57:30;;;;;;;;;;;11.50;55.60;;;;;;5055397;28;19994;-67
2021/12/14 12:00:16;;;;;;;;;;;11.70;55.50;;;;;;5055048;28;20047;-67
2021/12/14 12:02:42;;;;;;;;;;;11.90;55.50;;;;;;5055031;28;19937;-67
2021/12/14 12:05:15;;;;;;;;;;;12.30;54.40;;;;;;5055017;28;19942;-67
2021/12/14 12:10:35;;;;;;;;;;;13.10;51.70;;;;;;5054695;28;19987;-67
2021/12/14 12:13:00;;;;;;;;;;;13.50;50.20;;;;;;5054821;28;20071;-67
2021/12/14 12:15:26;;;;;;;;;;;13.50;49.50;;;;;;5054706;28;19969;-67
2021/12/14 12:17:58;;;;;;;;;;;13.10;50.90;;;;;;5053710;28;19945;-67
2021/12/14 12:20:30;;;;;;;;;;;12.50;52.10;;;;;;5048364;28;19953;-67
2021/12/14 12:22:58;;;;;;;;;;;12.30;53.00;;;;;;5053779;28;19946;-67
2021/12/14 12:25:26;;;;;;;;;;;12.20;52.50;;;;;;5053882;28;20003;-67
2021/12/14 12:27:54;;;;;;;;;;;12.10;53.40;;;;;;5053411;28;20028;-67
2021/12/14 12:30:38;;;;;;;;;;;12.30;53.20;;;;;;5049898;28;19943;-67
2021/12/14 12:33:22;;;;;;;;;;;12.40;52.80;;;;;;5038461;28;19946;-67
2021/12/14 12:35:57;;;;;;;;;;;12.50;53.30;;;;;;5048532;28;20261;-67
2021/12/14 12:38:33;;;;;;;;;;;12.40;52.90;;;;;;5042779;28;19952;-67
2021/12/14 12:41:11;;;;;;;;;;;12.20;53.00;;;;;;5053376;28;20190;-67
2021/12/14 12:43:51;;;;;;;;;;;12.30;53.80;;;;;;5053588;28;19978;-67
2021/12/14 12:46:22;;;;;;;;;;;12.80;53.60;;;;;;5052913;28;19973;-65
2021/12/14 12:48:49;;;;;;;;;;;13.40;50.60;;;;;;5053791;28;20431;-65
2021/12/14 12:51:33;;;;;;;;;;;13.40;50.60;;;;;;5052723;28;19954;-65
2021/12/14 12:54:17;;;;;;;;;;;13.20;51.20;;;;;;5046642;28;20338;-65
2021/12/14 12:56:44;;;;;;;;;;;13.50;50.60;;;;;;5053748;28;19962;-65
2021/12/14 12:59:11;;;;;;;;;;;14.20;48.50;;;;;;5052921;28;19946;-65
2021/12/14 13:01:37;;;;;;;;;;;14.70;48.40;;;;;;5043751;28;19953;-65
2021/12/14 13:04:03;;;;;;;;;;;15.40;45.90;;;;;;5053451;28;19945;-65
2021/12/14 13:06:29;;;;;;;;;;;16.10;44.70;;;;;;5051336;28;19955;-65
2021/12/14 13:08:58;;;;;;;;;;;16.90;42.70;;;;;;5052682;28;19938;-65
2021/12/14 13:11:26;;;;;;;;;;;16.80;41.40;;;;;;5061355;23;19985;-65
2021/12/14 13:14:03;;;;;;;;;;;16.60;42.40;;;;;;5060445;28;19941;-65
2021/12/14 13:16:31;;;;;;;;;;;16.20;42.60;;;;;;5033840;28;20069;-65
2021/12/14 13:18:58;;;;;;;;;;;16.80;41.10;;;;;;5046088;28;21688;-65
2021/12/14 13:21:32;;;;;;;;;;;16.90;39.50;;;;;;5037258;28;19958;-65
2021/12/14 13:24:12;;;;;;;;;;;15.90;42.10;;;;;;5046452;28;19943;-65
2021/12/14 13:26:40;;;;;;;;;;;15.60;42.60;;;;;;5046489;28;19941;-65
2021/12/14 13:29:16;;;;;;;;;;;15.00;44.50;;;;;;5055477;28;19954;-65
2021/12/14 13:31:47;;;;;;;;;;;14.40;46.10;;;;;;5049674;28;20405;-65
2021/12/14 13:34:15;;;;;;;;;;;14.20;47.00;;;;;;5063074;28;20324;-65
2021/12/14 13:36:42;;;;;;;;;;;13.70;48.10;;;;;;5060189;28;20440;-65
2021/12/14 13:39:09;;;;;;;;;;;13.30;48.90;;;;;;5054831;28;19994;-65
2021/12/14 13:41:47;;;;;;;;;;;12.90;50.70;;;;;;5057272;28;19961;-66
2021/12/14 13:44:13;;;;;;;;;;;12.60;51.60;;;;;;5063044;28;19945;-65
2021/12/14 13:46:39;;;;;;;;;;;12.40;51.60;;;;;;5065096;28;19947;-65
2021/12/14 13:49:04;;;;;;;;;;;12.00;52.70;;;;;;5061012;28;20409;-66
2021/12/14 13:51:30;;;;;;;;;;;12.10;53.30;;;;;;5051671;28;19951;-66
2021/12/14 13:53:57;;;;;;;;;;;11.90;54.60;;;;;;5059785;28;19939;-66
2021/12/14 13:56:42;;;;;;;;;;;11.60;55.80;;;;;;5060321;28;20019;-66
2021/12/14 13:59:08;;;;;;;;;;;11.50;55.40;;;;;;5058511;28;19944;-66
2021/12/14 14:01:54;;;;;;;;;;;11.50;55.20;;;;;;5058148;28;19986;-65
2021/12/14 14:04:22;;;;;;;;;;;11.40;56.10;;;;;;5060154;28;20033;-65
2021/12/14 14:06:48;;;;;;;;;;;11.20;57.90;;;;;;5052037;28;19980;-66
2021/12/14 14:09:18;;;;;;;;;;;11.10;59.00;;;;;;5055823;28;19956;-66
2021/12/14 14:11:54;;;;;;;;;;;10.90;59.60;;;;;;5055957;28;19972;-66
2021/12/14 14:14:24;;;;;;;;;;;10.90;59.80;;;;;;5049736;28;19955;-66
2021/12/14 14:17:13;;;;;;;;;;;10.90;59.90;;;;;;5052806;28;19957;-66
2021/12/14 14:19:42;;;;;;;;;;;10.90;60.30;;;;;;5053463;28;19986;-66
2021/12/14 14:22:07;;;;;;;;;;;10.90;60.80;;;;;;5055280;28;19968;-66
2021/12/14 14:24:36;;;;;;;;;;;10.90;60.70;;;;;;5053827;28;20390;-65
2021/12/14 14:27:03;;;;;;;;;;;11.00;60.30;;;;;;5058880;28;20051;-66
2021/12/14 14:29:42;;;;;;;;;;;11.00;60.50;;;;;;5052638;28;19940;-65
2021/12/14 14:32:22;;;;;;;;;;;10.90;60.30;;;;;;5059438;28;19945;-65
2021/12/14 14:34:54;;;;;;;;;;;10.80;60.70;;;;;;5064508;28;19943;-66
2021/12/14 14:37:49;;;;;;;;;;;10.70;60.60;;;;;;5054900;28;19960;-66
2021/12/14 14:40:19;;;;;;;;;;;10.40;61.60;;;;;;5056241;28;19962;-65
2021/12/14 14:42:49;;;;;;;;;;;10.10;63.00;;;;;;5060901;28;20365;-65
2021/12/14 14:45:19;;;;;;;;;;;9.90;63.60;;;;;;5059195;28;20365;-66
2021/12/14 14:47:45;;;;;;;;;;;9.90;64.10;;;;;;5059847;28;19985;-66
2021/12/14 14:50:19;;;;;;;;;;;9.80;64.80;;;;;;5053723;28;20187;-66
2021/12/14 14:52:51;;;;;;;;;;;9.70;65.20;;;;;;5054320;28;19983;-66
2021/12/14 14:55:35;;;;;;;;;;;9.50;65.10;;;;;;5063978;28;19974;-66
2021/12/14 14:58:03;;;;;;;;;;;9.50;65.90;;;;;;5055934;28;19980;-66
2021/12/14 15:00:41;;;;;;;;;;;9.40;66.30;;;;;;5057701;28;19952;-66
2021/12/14 15:03:11;;;;;;;;;;;9.40;66.60;;;;;;5064326;28;20405;-65
2021/12/14 15:05:44;;;;;;;;;;;9.50;66.10;;;;;;5059296;28;20027;-65
2021/12/14 15:08:12;;;;;;;;;;;9.40;66.30;;;;;;5055884;28;19988;-65
2021/12/14 15:11:15;;;;;;;;;;;9.20;66.50;;;;;;5057445;28;20447;-66
2021/12/14 15:13:49;;;;;;;;;;;9.00;67.70;;;;;;5008597;28;20045;-67
2021/12/14 15:16:23;;;;;;;;;;;8.80;69.60;;;;;;5041982;28;20021;-67